createdAt,value
2022-10-11T00:02:14.688Z,4.50
2022-10-11T00:04:42.526Z,4.95
2022-10-11T00:07:10.748Z,4.88
2022-10-11T00:09:38.606Z,4.97
2022-10-11T00:12:06.970Z,5.15
2022-10-11T00:14:35.029Z,5.07
2022-10-11T00:17:02.814Z,4.30
2022-10-11T00:19:32.001Z,5.60
2022-10-11T00:21:59.782Z,4.00
2022-10-11T00:24:27.640Z,4.35
2022-10-11T00:26:55.433Z,4.43
2022-10-11T00:29:23.696Z,3.95
2022-10-11T00:31:51.537Z,4.00
2022-10-11T00:34:19.409Z,3.72
2022-10-11T00:36:48.624Z,3.78
2022-10-11T00:39:16.493Z,4.07
2022-10-11T00:41:44.289Z,3.38
2022-10-11T00:44:15.947Z,3.50
2022-10-11T00:46:46.293Z,3.17
2022-10-11T00:49:19.538Z,3.70
2022-10-11T00:51:53.521Z,2.53
2022-10-11T00:54:25.282Z,3.30
2022-10-11T00:56:58.553Z,3.75
2022-10-11T00:59:30.627Z,3.10
2022-10-11T01:01:58.756Z,3.65
2022-10-11T01:04:26.564Z,3.00
2022-10-11T01:06:56.024Z,3.33
2022-10-11T01:09:23.892Z,3.40
2022-10-11T01:11:54.902Z,3.45
2022-10-11T01:14:43.927Z,3.40
2022-10-11T01:17:22.716Z,3.55
2022-10-11T01:20:28.066Z,3.30
2022-10-11T01:23:28.887Z,3.28
2022-10-11T01:26:16.861Z,3.47
2022-10-11T01:28:50.577Z,2.80
2022-10-11T01:31:26.465Z,3.33
2022-10-11T01:34:00.771Z,3.40
2022-10-11T01:36:32.844Z,3.85
2022-10-11T01:39:05.387Z,3.40
2022-10-11T01:41:41.003Z,3.20
2022-10-11T01:44:11.488Z,3.05
2022-10-11T01:46:41.830Z,3.22
2022-10-11T01:51:42.986Z,2.70
2022-10-11T01:54:44.363Z,2.83
2022-10-11T01:57:37.226Z,3.58
2022-10-11T02:00:11.306Z,3.15
2022-10-11T02:02:53.609Z,3.10
2022-10-11T02:05:29.537Z,3.03
2022-10-11T02:08:03.100Z,2.67
2022-10-11T02:10:36.975Z,2.70
2022-10-11T02:13:10.303Z,3.10
2022-10-11T02:15:41.640Z,2.78
2022-10-11T02:18:16.643Z,2.78
2022-10-11T02:20:46.542Z,3.60
2022-10-11T02:23:18.770Z,3.08
2022-10-11T02:25:48.358Z,2.65
2022-10-11T02:28:19.804Z,3.08
2022-10-11T02:30:50.563Z,3.08
2022-10-11T02:33:24.961Z,2.72
2022-10-11T02:35:59.835Z,3.17
2022-10-11T02:38:35.159Z,3.20
2022-10-11T02:41:12.333Z,3.03
2022-10-11T02:43:44.613Z,2.90
2022-10-11T02:46:17.492Z,3.55
2022-10-11T02:48:46.956Z,3.00
2022-10-11T02:51:15.538Z,3.22
2022-10-11T02:53:43.368Z,3.00
2022-10-11T02:56:11.250Z,3.45
2022-10-11T02:58:39.118Z,3.60
2022-10-11T03:01:07.311Z,3.60
2022-10-11T03:03:35.248Z,3.42
2022-10-11T03:06:05.744Z,3.47
2022-10-11T03:08:33.938Z,3.38
2022-10-11T03:11:01.867Z,3.08
2022-10-11T03:13:29.724Z,3.10
2022-10-11T03:16:03.398Z,4.13
2022-10-11T03:18:31.815Z,3.30
2022-10-11T03:20:59.673Z,3.92
2022-10-11T03:23:28.881Z,4.30
2022-10-11T03:25:56.669Z,4.10
2022-10-11T03:28:24.545Z,3.78
2022-10-11T03:30:52.641Z,3.55
2022-10-11T03:33:21.441Z,3.47
2022-10-11T03:35:50.164Z,3.67
2022-10-11T03:38:20.176Z,4.00
2022-10-11T03:40:49.559Z,3.67
2022-10-11T03:43:17.368Z,3.70
2022-10-11T03:45:45.223Z,3.63
2022-10-11T03:48:13.731Z,3.83
2022-10-11T03:50:41.725Z,3.75
2022-10-11T03:53:10.056Z,4.25
2022-10-11T03:55:40.109Z,3.80
2022-10-11T03:58:09.570Z,6.00
2022-10-11T04:00:38.002Z,4.20
2022-10-11T04:03:05.883Z,5.20
2022-10-11T04:05:33.820Z,5.07
2022-10-11T04:08:01.694Z,4.47
2022-10-11T04:10:31.027Z,5.00
2022-10-11T04:12:58.896Z,5.15
2022-10-11T04:15:28.136Z,5.30
2022-10-11T04:17:56.045Z,5.20
2022-10-11T04:20:24.142Z,4.90
2022-10-11T04:22:51.992Z,5.35
2022-10-11T04:25:19.896Z,5.50
2022-10-11T04:27:47.877Z,4.78
2022-10-11T04:30:16.160Z,4.32
2022-10-11T04:32:46.220Z,5.07
2022-10-11T04:35:14.622Z,5.60
2022-10-11T04:37:42.499Z,4.47
2022-10-11T04:40:11.693Z,4.68
2022-10-11T04:42:39.551Z,4.68
2022-10-11T04:45:09.397Z,5.18
2022-10-11T04:47:37.273Z,4.80
2022-10-11T04:50:07.512Z,6.15
2022-10-11T04:52:35.383Z,5.25
2022-10-11T04:55:03.201Z,5.07
2022-10-11T04:57:31.064Z,4.65
2022-10-11T04:59:58.938Z,5.10
2022-10-11T05:02:27.176Z,4.68
2022-10-11T05:04:55.119Z,4.72
2022-10-11T05:07:24.421Z,4.93
2022-10-11T05:09:52.504Z,4.20
2022-10-11T05:12:20.362Z,5.28
2022-10-11T05:14:48.203Z,5.43
2022-10-11T05:17:16.113Z,6.00
2022-10-11T05:19:43.967Z,8.55
2022-10-11T05:22:11.828Z,6.88
2022-10-11T05:24:41.071Z,9.15
2022-10-11T05:27:09.059Z,7.30
2022-10-11T05:29:36.952Z,7.40
2022-10-11T05:32:05.016Z,6.53
2022-10-11T05:34:32.841Z,8.07
2022-10-11T05:37:00.623Z,7.43
2022-10-11T05:39:28.453Z,6.95
2022-10-11T05:41:58.006Z,6.25
2022-10-11T05:44:26.034Z,6.13
2022-10-11T05:46:53.973Z,6.72
2022-10-11T05:49:21.819Z,7.10
2022-10-11T05:51:49.640Z,7.28
2022-10-11T05:54:17.550Z,8.07
2022-10-11T05:56:45.388Z,9.20
2022-10-11T05:59:14.676Z,7.75
2022-10-11T06:01:42.522Z,9.25
2022-10-11T06:04:11.703Z,10.52
2022-10-11T06:06:39.510Z,10.30
2022-10-11T06:09:07.309Z,10.43
2022-10-11T06:11:35.192Z,10.45
2022-10-11T06:14:03.045Z,11.68
2022-10-11T06:16:32.384Z,10.88
2022-10-11T06:19:00.251Z,11.82
2022-10-11T06:21:28.166Z,11.35
2022-10-11T06:24:01.189Z,11.18
2022-10-11T06:26:30.350Z,11.77
2022-10-11T06:28:58.978Z,10.05
2022-10-11T06:31:27.210Z,12.90
2022-10-11T06:33:56.429Z,13.27
2022-10-11T06:36:24.380Z,11.43
2022-10-11T06:38:52.928Z,13.15
2022-10-11T06:41:23.650Z,11.77
2022-10-11T06:43:52.199Z,13.93
2022-10-11T06:46:21.153Z,14.63
2022-10-11T06:48:49.826Z,13.43
2022-10-11T06:51:21.596Z,13.40
2022-10-11T06:53:50.148Z,14.38
2022-10-11T06:56:18.413Z,12.02
2022-10-11T06:58:46.381Z,13.30
2022-10-11T07:01:19.064Z,12.95
2022-10-11T07:03:47.531Z,12.65
2022-10-11T07:06:17.822Z,13.20
2022-10-11T07:11:17.000Z,16.70
2022-10-11T07:13:49.401Z,18.45
2022-10-11T07:16:17.342Z,22.23
2022-10-11T07:18:45.381Z,21.95
2022-10-11T07:21:15.708Z,25.50
2022-10-11T07:26:13.315Z,37.55
2022-10-11T07:28:42.309Z,27.55
2022-10-11T07:31:13.613Z,14.35
2022-10-11T07:33:41.631Z,70.20
2022-10-11T07:36:10.982Z,21.48
2022-10-11T07:38:41.428Z,14.60
2022-10-11T07:41:10.135Z,12.27
2022-10-11T07:43:40.135Z,10.98
2022-10-11T07:46:09.167Z,10.20
2022-10-11T07:48:38.083Z,9.87
2022-10-11T07:51:08.745Z,9.85
2022-10-11T07:53:41.026Z,13.10
2022-10-11T07:56:09.685Z,9.73
2022-10-11T07:58:39.064Z,9.15
2022-10-11T08:01:07.643Z,8.70
2022-10-11T08:03:36.038Z,9.02
2022-10-11T08:06:06.224Z,8.43
2022-10-11T08:08:34.719Z,7.82
2022-10-11T08:11:02.667Z,9.52
2022-10-11T08:13:30.480Z,11.13
2022-10-11T08:16:00.338Z,10.30
2022-10-11T08:18:28.293Z,8.43
2022-10-11T08:20:56.171Z,8.15
2022-10-11T08:23:24.035Z,8.18
2022-10-11T08:25:58.174Z,7.75
2022-10-11T08:28:27.211Z,8.30
2022-10-11T08:30:56.094Z,7.47
2022-10-11T08:33:26.835Z,7.63
2022-10-11T08:35:57.111Z,8.55
2022-10-11T08:40:56.105Z,6.53
2022-10-11T08:43:39.203Z,7.05
2022-10-11T08:46:09.709Z,6.10
2022-10-11T08:48:43.159Z,7.15
2022-10-11T08:51:17.413Z,6.60
2022-10-11T08:53:50.423Z,6.97
2022-10-11T08:56:20.135Z,6.72
2022-10-11T08:58:52.984Z,6.30
2022-10-11T09:01:24.760Z,6.35
2022-10-11T09:03:54.324Z,5.88
2022-10-11T09:06:36.406Z,6.77
2022-10-11T09:09:30.085Z,7.15
2022-10-11T09:12:13.803Z,5.60
2022-10-11T09:15:02.048Z,5.35
2022-10-11T09:17:42.957Z,5.30
2022-10-11T09:20:32.111Z,4.97
2022-10-11T09:23:05.872Z,5.20
2022-10-11T09:25:36.435Z,5.22
2022-10-11T09:28:18.883Z,4.85
2022-10-11T09:30:53.782Z,5.03
2022-10-11T09:33:32.450Z,5.97
2022-10-11T09:36:04.142Z,5.22
2022-10-11T09:38:41.241Z,5.50
2022-10-11T09:41:18.963Z,5.93
2022-10-11T09:43:48.688Z,4.68
2022-10-11T09:46:23.724Z,6.03
2022-10-11T09:48:54.696Z,4.85
2022-10-11T09:51:28.474Z,4.97
2022-10-11T09:53:59.810Z,4.82
2022-10-11T09:56:29.950Z,5.72
2022-10-11T09:59:09.373Z,4.75
2022-10-11T10:01:37.803Z,4.83
2022-10-11T10:04:09.509Z,5.05
2022-10-11T10:06:39.686Z,4.93
2022-10-11T10:09:27.950Z,3.95
2022-10-11T10:11:56.474Z,4.18
2022-10-11T10:14:28.440Z,4.05
2022-10-11T10:17:05.126Z,3.92
2022-10-11T10:19:44.741Z,4.00
2022-10-11T10:22:20.548Z,3.65
2022-10-11T10:24:51.304Z,3.90
2022-10-11T10:27:22.524Z,3.53
2022-10-11T10:30:16.006Z,3.13
2022-10-11T10:32:52.498Z,2.92
2022-10-11T10:35:30.318Z,3.30
2022-10-11T10:38:07.969Z,3.42
2022-10-11T10:40:42.104Z,3.60
2022-10-11T10:43:16.467Z,3.15
2022-10-11T10:46:04.009Z,3.33
2022-10-11T10:49:18.736Z,2.92
2022-10-11T10:51:40.659Z,2.30
2022-10-11T10:54:20.677Z,2.20
2022-10-11T10:56:53.992Z,2.35
2022-10-11T10:59:47.150Z,2.90
2022-10-11T11:02:39.575Z,2.40
2022-10-11T11:05:18.770Z,2.63
2022-10-11T11:07:51.264Z,4.03
2022-10-11T11:10:24.203Z,2.63
2022-10-11T11:13:04.289Z,3.13
2022-10-11T11:15:40.029Z,2.80
2022-10-11T11:18:28.582Z,2.42
2022-10-11T11:21:13.909Z,2.47
2022-10-11T11:23:49.125Z,3.30
2022-10-11T11:26:26.365Z,2.50
2022-10-11T11:29:12.414Z,3.75
2022-10-11T11:32:01.624Z,2.42
2022-10-11T11:34:36.994Z,2.05
2022-10-11T11:37:08.026Z,2.47
2022-10-11T11:39:43.475Z,1.77
2022-10-11T11:42:17.401Z,2.80
2022-10-11T11:44:47.967Z,2.10
2022-10-11T11:47:23.672Z,2.10
2022-10-11T11:49:58.379Z,2.38
2022-10-11T11:52:29.614Z,1.65
2022-10-11T11:55:10.407Z,2.33
2022-10-11T11:57:53.305Z,2.40
2022-10-11T12:00:23.267Z,1.52
2022-10-11T12:02:54.425Z,2.00
2022-10-11T12:05:25.456Z,2.35
2022-10-11T12:07:58.431Z,2.08
2022-10-11T12:10:31.249Z,2.15
2022-10-11T12:13:18.903Z,2.38
2022-10-11T12:16:00.127Z,2.35
2022-10-11T12:18:29.093Z,2.03
2022-10-11T12:21:06.888Z,2.15
2022-10-11T12:23:44.899Z,2.25
2022-10-11T12:26:33.491Z,1.98
2022-10-11T12:29:34.630Z,1.95
2022-10-11T12:32:48.075Z,1.75
2022-10-11T12:35:49.621Z,1.80
2022-10-11T12:38:21.714Z,1.65
2022-10-11T12:40:51.230Z,2.05
2022-10-11T12:43:37.620Z,1.67
2022-10-11T12:46:53.788Z,2.75
2022-10-11T12:49:29.199Z,2.10
2022-10-11T12:52:01.920Z,1.80
2022-10-11T12:55:00.388Z,2.20
2022-10-11T12:57:51.823Z,1.88
2022-10-11T13:00:23.762Z,1.80
2022-10-11T13:02:51.684Z,1.92
2022-10-11T13:05:26.307Z,1.90
2022-10-11T13:07:58.136Z,1.98
2022-10-11T13:10:30.295Z,2.03
2022-10-11T13:13:04.188Z,2.15
2022-10-11T13:15:32.618Z,1.73
2022-10-11T13:18:01.584Z,1.88
2022-10-11T13:20:37.490Z,1.92
2022-10-11T13:23:22.900Z,2.03
2022-10-11T13:25:51.299Z,2.50
2022-10-11T13:28:20.343Z,1.77
2022-10-11T13:30:51.425Z,1.92
2022-10-11T13:33:22.384Z,2.35
2022-10-11T13:35:53.395Z,3.03
2022-10-11T13:38:27.286Z,2.10
2022-10-11T13:40:56.452Z,1.58
2022-10-11T13:43:28.157Z,1.85
2022-10-11T13:45:58.243Z,1.63
2022-10-11T13:48:30.887Z,1.40
2022-10-11T13:51:09.167Z,2.60
2022-10-11T13:53:36.993Z,2.22
2022-10-11T13:56:08.476Z,1.40
2022-10-11T13:58:40.459Z,1.63
2022-10-11T14:01:19.096Z,1.67
2022-10-11T14:03:50.222Z,2.08
2022-10-11T14:06:19.547Z,1.90
2022-10-11T14:08:51.387Z,1.63
2022-10-11T14:11:34.884Z,2.85
2022-10-11T14:14:29.208Z,2.17
2022-10-11T14:16:58.344Z,2.08
2022-10-11T14:19:26.367Z,1.85
2022-10-11T14:21:55.595Z,1.65
2022-10-11T14:24:24.414Z,2.35
2022-10-11T14:26:54.543Z,1.70
2022-10-11T14:29:26.559Z,1.90
2022-10-11T14:32:03.994Z,2.60
2022-10-11T14:34:32.836Z,2.22
2022-10-11T14:37:02.282Z,1.90
2022-10-11T14:39:32.868Z,2.23
2022-10-11T14:42:00.783Z,1.65
2022-10-11T14:44:28.631Z,1.90
2022-10-11T14:46:56.477Z,1.80
2022-10-11T14:49:26.939Z,2.17
2022-10-11T14:51:56.754Z,1.77
2022-10-11T14:54:27.700Z,2.10
2022-10-11T14:56:58.086Z,2.08
2022-10-11T14:59:28.908Z,1.63
2022-10-11T15:01:56.918Z,1.77
2022-10-11T15:04:27.251Z,1.98
2022-10-11T15:09:30.854Z,1.88
2022-10-11T15:11:59.243Z,1.55
2022-10-11T15:14:27.449Z,2.17
2022-10-11T15:16:56.231Z,2.60
2022-10-11T15:19:25.913Z,2.50
2022-10-11T15:21:54.277Z,1.83
2022-10-11T15:24:22.271Z,1.98
2022-10-11T15:26:51.501Z,2.00
2022-10-11T15:29:21.849Z,2.20
2022-10-11T15:34:18.686Z,2.03
2022-10-11T15:36:47.100Z,2.15
2022-10-11T15:39:25.473Z,1.73
2022-10-11T15:41:54.881Z,2.35
2022-10-11T15:44:22.758Z,2.25
2022-10-11T15:46:50.929Z,2.00
2022-10-11T15:49:19.655Z,2.25
2022-10-11T15:51:47.619Z,1.92
2022-10-11T15:54:15.548Z,1.80
2022-10-11T15:56:43.866Z,2.20
2022-10-11T15:59:13.056Z,2.55
2022-10-11T16:01:40.997Z,2.58
2022-10-11T16:04:09.105Z,2.42
2022-10-11T16:06:37.040Z,2.15
2022-10-11T16:09:05.190Z,1.98
2022-10-11T16:11:33.074Z,3.15
2022-10-11T16:14:00.930Z,2.35
2022-10-11T16:16:30.445Z,2.03
2022-10-11T16:18:58.402Z,2.20
2022-10-11T16:21:26.336Z,2.08
2022-10-11T16:23:54.577Z,2.92
2022-10-11T16:26:22.538Z,2.97
2022-10-11T16:28:50.601Z,3.03
2022-10-11T16:31:20.848Z,2.95
2022-10-11T16:33:50.540Z,3.47
2022-10-11T16:36:35.968Z,3.78
2022-10-11T16:39:08.092Z,2.33
2022-10-11T16:41:36.411Z,3.55
2022-10-11T16:44:04.755Z,2.78
2022-10-11T16:46:34.088Z,3.03
2022-10-11T16:49:03.884Z,3.60
2022-10-11T16:51:31.752Z,3.30
2022-10-11T16:53:59.784Z,5.70
2022-10-11T16:56:28.156Z,6.80
2022-10-11T16:58:56.613Z,6.75
2022-10-11T17:01:24.884Z,6.88
2022-10-11T17:03:53.717Z,6.68
2022-10-11T17:06:24.515Z,7.43
2022-10-11T17:08:52.369Z,6.40
2022-10-11T17:11:21.628Z,6.50
2022-10-11T17:13:50.743Z,7.47
2022-10-11T17:16:19.167Z,7.63
2022-10-11T17:18:47.385Z,5.55
2022-10-11T17:21:17.327Z,4.93
2022-10-11T17:23:46.710Z,4.55
2022-10-11T17:26:18.039Z,5.53
2022-10-11T17:28:46.555Z,4.60
2022-10-11T17:31:14.447Z,4.60
2022-10-11T17:33:42.376Z,5.25
2022-10-11T17:36:21.710Z,5.18
2022-10-11T17:38:52.561Z,5.20
2022-10-11T17:41:21.275Z,4.47
2022-10-11T17:43:49.409Z,3.63
2022-10-11T17:46:18.545Z,4.47
2022-10-11T17:48:46.463Z,4.60
2022-10-11T17:51:16.654Z,4.50
2022-10-11T17:53:45.346Z,4.80
2022-10-11T17:56:18.725Z,4.90
2022-10-11T17:58:47.658Z,5.03
2022-10-11T18:01:18.063Z,4.53
2022-10-11T18:03:52.484Z,4.93
2022-10-11T18:06:21.140Z,4.18
2022-10-11T18:08:49.029Z,4.72
2022-10-11T18:11:20.879Z,5.07
2022-10-11T18:13:50.335Z,6.18
2022-10-11T18:16:20.691Z,5.23
2022-10-11T18:18:48.849Z,5.75
2022-10-11T18:21:18.440Z,5.32
2022-10-11T18:23:47.005Z,6.22
2022-10-11T18:26:16.960Z,9.10
2022-10-11T18:28:46.747Z,9.70
2022-10-11T18:31:17.753Z,8.07
2022-10-11T18:33:46.407Z,9.98
2022-10-11T18:36:16.274Z,9.40
2022-10-11T18:38:46.700Z,8.85
2022-10-11T18:41:18.155Z,9.07
2022-10-11T18:43:51.305Z,8.52
2022-10-11T18:46:20.290Z,7.65
2022-10-11T18:48:50.796Z,6.07
2022-10-11T18:51:20.099Z,5.30
2022-10-11T18:53:49.026Z,5.82
2022-10-11T18:56:20.567Z,5.35
2022-10-11T18:58:50.990Z,6.18
2022-10-11T19:03:49.472Z,6.07
2022-10-11T19:06:20.881Z,5.63
2022-10-11T19:08:50.377Z,5.95
2022-10-11T19:11:21.612Z,5.73
2022-10-11T19:13:56.294Z,5.18
2022-10-11T19:16:24.366Z,5.88
2022-10-11T19:18:53.810Z,5.00
2022-10-11T19:21:22.104Z,4.83
2022-10-11T19:23:50.939Z,5.95
2022-10-11T19:26:21.149Z,5.88
2022-10-11T19:28:55.794Z,5.95
2022-10-11T19:31:23.862Z,5.47
2022-10-11T19:33:51.767Z,5.45
2022-10-11T19:36:20.133Z,5.97
2022-10-11T19:38:49.686Z,6.47
2022-10-11T19:41:20.208Z,6.57
2022-10-11T19:43:48.066Z,6.47
2022-10-11T19:46:38.031Z,6.50
2022-10-11T19:49:08.513Z,6.50
2022-10-11T19:51:38.269Z,5.95
2022-10-11T19:54:09.192Z,5.40
2022-10-11T19:56:37.547Z,5.93
2022-10-11T19:59:07.435Z,6.97
2022-10-11T20:01:37.963Z,6.82
2022-10-11T20:04:07.655Z,8.80
2022-10-11T20:06:39.579Z,10.40
2022-10-11T20:09:28.492Z,10.93
2022-10-11T20:11:56.110Z,11.45
2022-10-11T20:14:24.368Z,12.40
2022-10-11T20:16:54.021Z,10.00
2022-10-11T20:19:27.705Z,9.60
2022-10-11T20:21:57.397Z,47.22
2022-10-11T20:24:27.504Z,42.17
2022-10-11T20:29:25.259Z,30.40
2022-10-11T20:31:56.191Z,9.43
2022-10-11T20:34:24.124Z,26.63
2022-10-11T20:36:52.271Z,14.32
2022-10-11T20:39:20.186Z,22.92
2022-10-11T20:41:48.034Z,21.42
2022-10-11T20:44:16.698Z,21.40
2022-10-11T20:46:44.768Z,20.13
2022-10-11T20:49:14.163Z,20.35
2022-10-11T20:51:43.410Z,19.97
2022-10-11T20:54:11.661Z,14.88
2022-10-11T20:56:40.433Z,13.23
2022-10-11T20:59:09.230Z,12.40
2022-10-11T21:01:39.582Z,12.90
2022-10-11T21:04:11.038Z,11.02
2022-10-11T21:06:40.485Z,12.68
2022-10-11T21:09:10.253Z,10.90
2022-10-11T21:11:40.904Z,9.15
2022-10-11T21:14:08.733Z,8.93
2022-10-11T21:16:36.653Z,8.70
2022-10-11T21:19:04.943Z,7.25
2022-10-11T21:21:32.970Z,7.28
2022-10-11T21:24:03.016Z,7.18
2022-10-11T21:26:31.878Z,7.32
2022-10-11T21:29:00.264Z,7.90
2022-10-11T21:31:33.525Z,6.93
2022-10-11T21:34:02.339Z,7.65
2022-10-11T21:36:30.615Z,6.80
2022-10-11T21:38:58.383Z,7.75
2022-10-11T21:41:29.841Z,12.80
2022-10-11T21:43:58.349Z,13.85
2022-10-11T21:46:42.005Z,12.50
2022-10-11T21:49:15.696Z,11.85
2022-10-11T21:51:43.726Z,10.63
2022-10-11T21:54:11.658Z,10.52
2022-10-11T21:56:40.850Z,9.73
2022-10-11T21:59:12.027Z,9.40
2022-10-11T22:01:40.999Z,9.52
2022-10-11T22:04:11.008Z,9.40
2022-10-11T22:06:39.590Z,10.30
2022-10-11T22:09:08.273Z,9.27
2022-10-11T22:11:36.516Z,41.17
2022-10-11T22:14:05.943Z,35.58
2022-10-11T22:16:35.029Z,23.33
2022-10-11T22:19:03.152Z,25.75
2022-10-11T22:21:31.031Z,24.45
2022-10-11T22:23:58.949Z,19.40
2022-10-11T22:26:30.615Z,17.40
2022-10-11T22:28:59.161Z,14.20
2022-10-11T22:31:29.366Z,9.38
2022-10-11T22:36:25.324Z,8.98
2022-10-11T22:38:54.540Z,7.32
2022-10-11T22:41:22.413Z,7.60
2022-10-11T22:43:50.358Z,7.10
2022-10-11T22:46:18.974Z,6.70
2022-10-11T22:48:48.245Z,6.93
2022-10-11T22:51:16.073Z,6.25
2022-10-11T22:53:44.170Z,5.25
2022-10-11T22:56:12.027Z,5.47
2022-10-11T22:58:39.874Z,5.40
2022-10-11T23:01:09.662Z,5.05
2022-10-11T23:03:38.269Z,5.65
2022-10-11T23:06:07.777Z,4.82
2022-10-11T23:08:35.664Z,5.30
2022-10-11T23:11:05.011Z,4.70
2022-10-11T23:13:33.165Z,5.27
2022-10-11T23:16:01.073Z,4.78
2022-10-11T23:18:29.102Z,4.72
2022-10-11T23:21:00.844Z,5.78
2022-10-11T23:23:30.508Z,6.60
2022-10-11T23:26:02.969Z,6.85
2022-10-11T23:28:30.982Z,6.28
2022-10-11T23:30:59.080Z,6.65
2022-10-11T23:33:28.686Z,5.88
2022-10-11T23:35:56.596Z,7.05
2022-10-11T23:38:24.450Z,7.00
2022-10-11T23:40:53.749Z,6.25
2022-10-11T23:43:21.611Z,6.15
2022-10-11T23:45:49.599Z,8.63
2022-10-11T23:48:17.348Z,7.30
2022-10-11T23:50:45.185Z,7.82
2022-10-11T23:53:14.296Z,7.20
2022-10-11T23:55:43.486Z,7.45
2022-10-11T23:58:12.711Z,6.40
